Time,TemperatureF,DewpointF,PressureIn,WindDirection,WindDirectionDegrees,WindSpeedMPH,WindSpeedGustMPH,Humidity,HourlyPrecipIn,Conditions,Clouds,dailyrainin,SoftwareType,DateUTC
2013-02-03 00:00:00,26.0,-99.9,-100.00,WSW,258,4.0,13.0,-999,0.00,,,0.08,,2013-02-03 06:00:00,
2013-02-03 00:42:00,26.0,-99.9,-100.00,WSW,258,4.0,13.0,-999,0.00,,,0.08,,2013-02-03 06:42:00,
2013-02-03 00:52:00,26.0,-99.9,-100.00,WSW,258,4.0,13.0,-999,0.00,,,0.08,,2013-02-03 06:52:00,
2013-02-03 01:00:00,28.0,-99.9,-100.00,WNW,284,4.0,10.0,-999,0.00,,,0.08,,2013-02-03 07:00:00,
2013-02-03 01:42:00,28.0,-99.9,-100.00,WNW,284,4.0,10.0,-999,0.00,,,0.08,,2013-02-03 07:42:00,
2013-02-03 01:53:00,28.0,-99.9,-100.00,WNW,284,4.0,10.0,-999,0.00,,,0.08,,2013-02-03 07:53:00,
2013-02-03 03:00:00,29.0,-99.9,-100.00,WNW,298,10.0,21.0,-999,0.00,,,0.09,,2013-02-03 09:00:00,
2013-02-03 03:42:00,29.0,-99.9,-100.00,WNW,298,10.0,21.0,-999,0.00,,,0.09,,2013-02-03 09:42:00,
2013-02-03 03:52:00,29.0,-99.9,-100.00,WNW,298,10.0,21.0,-999,0.00,,,0.09,,2013-02-03 09:52:00,
2013-02-03 04:00:00,23.0,-99.9,-100.00,NW,315,9.0,23.0,-999,0.00,,,0.09,,2013-02-03 10:00:00,
2013-02-03 04:42:00,23.0,-99.9,-100.00,NW,315,9.0,23.0,-999,0.00,,,0.09,,2013-02-03 10:42:00,
2013-02-03 04:53:00,23.0,-99.9,-100.00,NW,315,9.0,23.0,-999,0.00,,,0.09,,2013-02-03 10:53:00,
2013-02-03 05:00:00,23.0,-99.9,-100.00,WNW,303,9.0,19.0,-999,0.00,,,0.09,,2013-02-03 11:00:00,
2013-02-03 05:42:00,23.0,-99.9,-100.00,WNW,303,9.0,19.0,-999,0.00,,,0.09,,2013-02-03 11:42:00,
2013-02-03 05:52:00,23.0,-99.9,-100.00,WNW,303,9.0,19.0,-999,0.00,,,0.09,,2013-02-03 11:52:00,
2013-02-03 06:00:00,22.0,-99.9,-100.00,WNW,302,11.0,23.0,-999,0.00,,,0.09,,2013-02-03 12:00:00,
2013-02-03 06:42:00,22.0,-99.9,-100.00,WNW,302,11.0,23.0,-999,0.00,,,0.09,,2013-02-03 12:42:00,
2013-02-03 06:53:00,22.0,-99.9,-100.00,WNW,302,11.0,23.0,-999,0.00,,,0.09,,2013-02-03 12:53:00,
2013-02-03 07:00:00,20.0,-99.9,-100.00,NW,304,9.0,22.0,-999,0.00,,,0.09,,2013-02-03 13:00:00,
2013-02-03 07:42:00,20.0,-99.9,-100.00,NW,304,9.0,22.0,-999,0.00,,,0.09,,2013-02-03 13:42:00,
2013-02-03 07:53:00,20.0,-99.9,-100.00,NW,304,9.0,22.0,-999,0.00,,,0.09,,2013-02-03 13:53:00,
2013-02-03 08:00:00,19.0,-99.9,-100.00,WNW,297,6.0,15.0,-999,0.00,,,0.09,,2013-02-03 14:00:00,
2013-02-03 08:43:00,19.0,-99.9,-100.00,WNW,297,6.0,15.0,-999,0.00,,,0.09,,2013-02-03 14:43:00,
2013-02-03 08:53:00,19.0,-99.9,-100.00,WNW,297,6.0,15.0,-999,0.00,,,0.09,,2013-02-03 14:53:00,
2013-02-03 09:00:00,20.0,-99.9,-100.00,WNW,299,6.0,13.0,-999,0.00,,,0.09,,2013-02-03 15:00:00,
2013-02-03 09:42:00,20.0,-99.9,-100.00,WNW,299,6.0,13.0,-999,0.00,,,0.09,,2013-02-03 15:42:00,
2013-02-03 09:52:00,20.0,-99.9,-100.00,WNW,299,6.0,13.0,-999,0.00,,,0.09,,2013-02-03 15:52:00,
2013-02-03 10:00:00,22.0,-99.9,-100.00,NW,307,5.0,12.0,-999,0.00,,,0.09,,2013-02-03 16:00:00,
2013-02-03 10:42:00,22.0,-99.9,-100.00,NW,307,5.0,12.0,-999,0.00,,,0.09,,2013-02-03 16:42:00,
2013-02-03 10:52:00,22.0,-99.9,-100.00,NW,307,5.0,12.0,-999,0.00,,,0.09,,2013-02-03 16:52:00,
2013-02-03 11:00:00,24.0,-99.9,-100.00,WNW,284,6.0,10.0,-999,0.00,,,0.09,,2013-02-03 17:00:00,
2013-02-03 11:42:00,24.0,-99.9,-100.00,WNW,284,6.0,10.0,-999,0.00,,,0.09,,2013-02-03 17:42:00,
2013-02-03 11:53:00,24.0,-99.9,-100.00,WNW,284,6.0,10.0,-999,0.00,,,0.09,,2013-02-03 17:53:00,
2013-02-03 12:00:00,24.0,-99.9,-100.00,West,268,6.0,10.0,-999,0.00,,,0.09,,2013-02-03 18:00:00,
2013-02-03 12:42:00,24.0,-99.9,-100.00,West,268,6.0,10.0,-999,0.00,,,0.09,,2013-02-03 18:42:00,
2013-02-03 12:52:00,24.0,-99.9,-100.00,West,268,6.0,10.0,-999,0.00,,,0.09,,2013-02-03 18:52:00,
2013-02-03 13:00:00,27.0,-99.9,-100.00,West,265,4.0,8.0,-999,0.00,,,0.09,,2013-02-03 19:00:00,
2013-02-03 13:42:00,27.0,-99.9,-100.00,West,265,4.0,8.0,-999,0.00,,,0.09,,2013-02-03 19:42:00,
2013-02-03 13:52:00,27.0,-99.9,-100.00,West,265,4.0,8.0,-999,0.00,,,0.09,,2013-02-03 19:52:00,
2013-02-03 14:00:00,31.0,-99.9,-100.00,WSW,242,5.0,10.0,-999,0.00,,,0.03,,2013-02-03 20:00:00,
2013-02-03 14:42:00,31.0,-99.9,-100.00,WSW,242,5.0,10.0,-999,0.00,,,0.03,,2013-02-03 20:42:00,
2013-02-03 14:52:00,31.0,-99.9,-100.00,WSW,242,5.0,10.0,-999,0.00,,,0.03,,2013-02-03 20:52:00,
2013-02-03 15:00:00,32.0,-99.9,-100.00,SW,215,5.0,11.0,-999,0.03,,,0.04,,2013-02-03 21:00:00,
2013-02-03 15:33:00,32.0,-99.9,-100.00,SW,215,5.0,11.0,-999,0.03,,,0.04,,2013-02-03 21:33:00,
2013-02-03 15:43:00,32.0,-99.9,-100.00,SW,215,5.0,11.0,-999,0.03,,,0.04,,2013-02-03 21:43:00,
2013-02-03 15:52:00,32.0,-99.9,-100.00,SW,215,5.0,11.0,-999,0.03,,,0.04,,2013-02-03 21:52:00,
2013-02-03 16:00:00,32.0,-99.9,-100.00,SW,222,7.0,13.0,-999,0.01,,,0.05,,2013-02-03 22:00:00,
2013-02-03 16:42:00,32.0,-99.9,-100.00,SW,222,7.0,13.0,-999,0.01,,,0.05,,2013-02-03 22:42:00,
2013-02-03 16:52:00,32.0,-99.9,-100.00,SW,222,7.0,13.0,-999,0.01,,,0.05,,2013-02-03 22:52:00,
2013-02-03 17:00:00,31.0,-99.9,-100.00,SSW,211,6.0,10.0,-999,0.00,,,0.05,,2013-02-03 23:00:00,
2013-02-03 17:42:00,31.0,-99.9,-100.00,SSW,211,6.0,10.0,-999,0.00,,,0.05,,2013-02-03 23:42:00,
2013-02-03 17:52:00,31.0,-99.9,-100.00,SSW,211,6.0,10.0,-999,0.00,,,0.05,,2013-02-03 23:52:00,
2013-02-03 18:00:00,28.0,-99.9,-100.00,South,180,4.0,7.0,-999,0.00,,,0.05,,2013-02-04 00:00:00,
2013-02-03 18:32:00,28.0,-99.9,-100.00,South,180,4.0,7.0,-999,0.00,,,0.05,,2013-02-04 00:32:00,
2013-02-03 18:42:00,28.0,-99.9,-100.00,South,180,4.0,7.0,-999,0.00,,,0.05,,2013-02-04 00:42:00,
2013-02-03 18:52:00,28.0,-99.9,-100.00,South,180,4.0,7.0,-999,0.00,,,0.05,,2013-02-04 00:52:00,
2013-02-03 19:00:00,27.0,-99.9,-100.00,SSE,156,6.0,14.0,-999,0.00,,,0.05,,2013-02-04 01:00:00,
2013-02-03 19:32:00,27.0,-99.9,-100.00,SSE,156,6.0,14.0,-999,0.00,,,0.05,,2013-02-04 01:32:00,
2013-02-03 19:42:00,27.0,-99.9,-100.00,SSE,156,6.0,14.0,-999,0.00,,,0.05,,2013-02-04 01:42:00,
2013-02-03 19:52:00,27.0,-99.9,-100.00,SSE,156,6.0,14.0,-999,0.00,,,0.05,,2013-02-04 01:52:00,
2013-02-03 20:00:00,27.0,-99.9,-100.00,SSE,150,5.0,12.0,-999,0.00,,,0.05,,2013-02-04 02:00:00,
2013-02-03 20:42:00,27.0,-99.9,-100.00,SSE,150,5.0,12.0,-999,0.00,,,0.05,,2013-02-04 02:42:00,
2013-02-03 20:52:00,27.0,-99.9,-100.00,SSE,150,5.0,12.0,-999,0.00,,,0.05,,2013-02-04 02:52:00,
2013-02-03 21:00:00,25.0,-99.9,-100.00,SSE,164,8.0,18.0,-999,0.00,,,0.05,,2013-02-04 03:00:00,
2013-02-03 21:42:00,25.0,-99.9,-100.00,SSE,164,8.0,18.0,-999,0.00,,,0.05,,2013-02-04 03:42:00,
2013-02-03 21:52:00,25.0,-99.9,-100.00,SSE,164,8.0,18.0,-999,0.00,,,0.05,,2013-02-04 03:52:00,
2013-02-03 22:00:00,25.0,-99.9,-100.00,SSE,164,12.0,17.0,-999,0.00,,,0.05,,2013-02-04 04:00:00,
2013-02-03 22:32:00,25.0,-99.9,-100.00,SSE,164,12.0,17.0,-999,0.00,,,0.05,,2013-02-04 04:32:00,
2013-02-03 22:42:00,25.0,-99.9,-100.00,SSE,164,12.0,17.0,-999,0.00,,,0.05,,2013-02-04 04:42:00,
2013-02-03 22:52:00,25.0,-99.9,-100.00,SSE,164,12.0,17.0,-999,0.00,,,0.05,,2013-02-04 04:52:00,
2013-02-03 23:00:00,26.0,-99.9,-100.00,South,173,8.0,19.0,-999,0.00,,,0.05,,2013-02-04 05:00:00,
2013-02-03 23:33:00,26.0,-99.9,-100.00,South,173,8.0,19.0,-999,0.00,,,0.05,,2013-02-04 05:33:00,
2013-02-03 23:42:00,26.0,-99.9,-100.00,South,173,8.0,19.0,-999,0.00,,,0.05,,2013-02-04 05:42:00,
2013-02-03 23:52:00,26.0,-99.9,-100.00,South,173,8.0,19.0,-999,0.00,,,0.05,,2013-02-04 05:52:00,